createdAt,value
2023-05-16T21:30:41.374Z,18.50
2023-05-16T21:31:48.321Z,24.30
2023-05-16T21:32:54.975Z,31.20
2023-05-16T21:34:02.264Z,30.70
2023-05-16T21:35:10.254Z,30.60
2023-05-16T21:36:16.972Z,28.20
2023-05-16T21:37:23.866Z,28.50
2023-05-16T21:38:31.050Z,29.50
2023-05-16T21:39:37.861Z,25.60
2023-05-16T21:40:45.321Z,26.30
2023-05-16T21:41:52.825Z,23.40
2023-05-16T21:42:59.662Z,25.80
2023-05-16T21:44:06.592Z,22.20
2023-05-16T21:45:17.956Z,20.30
2023-05-16T21:46:25.587Z,18.60
2023-05-16T21:47:32.384Z,19.80
2023-05-16T21:48:39.319Z,16.50
2023-05-16T21:49:46.519Z,14.90
2023-05-16T21:50:53.330Z,14.80
2023-05-16T21:51:59.934Z,13.30
2023-05-16T21:53:06.669Z,13.60
2023-05-16T21:54:13.637Z,14.60
2023-05-16T21:55:20.745Z,12.80
2023-05-16T21:56:28.857Z,11.20
2023-05-16T21:57:35.565Z,10.50
2023-05-16T21:58:43.555Z,10.70
2023-05-16T21:59:53.771Z,9.80
2023-05-16T22:01:00.899Z,10.10
2023-05-16T22:02:09.454Z,9.70
2023-05-16T22:03:20.407Z,9.40
2023-05-16T22:04:29.633Z,10.10
2023-05-16T22:05:36.606Z,8.00
2023-05-16T22:06:43.179Z,7.80
2023-05-16T22:07:50.278Z,9.30
2023-05-16T22:08:57.906Z,8.40
2023-05-16T22:10:04.807Z,7.00
2023-05-16T22:11:11.515Z,6.90
2023-05-16T22:12:18.591Z,5.50
2023-05-16T22:13:25.324Z,4.90
2023-05-16T22:14:32.267Z,4.90
2023-05-16T22:15:39.613Z,3.60
2023-05-16T22:16:47.896Z,3.70
2023-05-16T22:17:54.314Z,3.20
2023-05-16T22:19:14.491Z,3.30
2023-05-16T22:20:22.656Z,2.90
2023-05-16T22:21:29.426Z,2.50
2023-05-16T22:22:37.088Z,2.60
2023-05-16T22:23:44.034Z,2.10
2023-05-16T22:24:50.776Z,2.00
2023-05-16T22:25:58.033Z,2.10
2023-05-16T22:27:04.685Z,1.90
2023-05-16T22:28:11.291Z,1.60
2023-05-16T22:29:17.859Z,1.70
2023-05-16T22:30:24.513Z,1.60
2023-05-16T22:31:31.036Z,2.20
2023-05-16T22:32:37.823Z,2.40
2023-05-16T22:33:45.105Z,1.20
2023-05-16T22:34:52.006Z,1.00
2023-05-16T22:35:59.410Z,2.00
2023-05-16T22:37:10.548Z,0.90
2023-05-16T22:38:17.316Z,1.20
2023-05-16T22:39:23.972Z,1.90
2023-05-16T22:40:30.761Z,0.50
2023-05-16T22:41:37.453Z,0.60
2023-05-16T22:42:44.285Z,0.60
2023-05-16T22:43:51.460Z,0.50
2023-05-16T22:44:58.451Z,0.50
2023-05-16T22:46:05.181Z,0.40
2023-05-16T22:47:12.255Z,0.60
2023-05-16T22:48:19.180Z,0.30
2023-05-16T22:49:25.839Z,0.50
2023-05-16T22:50:32.743Z,0.80
2023-05-16T22:51:39.440Z,0.40
2023-05-16T22:52:46.193Z,0.40
2023-05-16T22:53:52.880Z,0.60
2023-05-16T22:55:01.962Z,0.20
2023-05-16T22:56:09.548Z,1.10
2023-05-16T22:57:16.566Z,0.20
2023-05-16T22:58:23.218Z,0.30
2023-05-16T22:59:29.911Z,0.70
2023-05-16T23:00:36.891Z,0.10
2023-05-16T23:01:43.574Z,0.20
2023-05-16T23:02:50.254Z,1.00
2023-05-16T23:03:57.255Z,0.20
2023-05-16T23:05:04.172Z,0.70
2023-05-16T23:06:11.116Z,0.30
2023-05-16T23:07:18.427Z,0.20
2023-05-16T23:08:25.469Z,0.10
2023-05-16T23:09:33.002Z,0.80
2023-05-16T23:10:39.871Z,0.80
2023-05-16T23:11:46.763Z,0.30
2023-05-16T23:12:53.611Z,0.10
2023-05-16T23:14:00.243Z,0.20
2023-05-16T23:15:11.168Z,0.10
2023-05-16T23:16:17.779Z,0.60
2023-05-16T23:17:25.458Z,0.10
2023-05-16T23:18:32.419Z,0.50
2023-05-16T23:19:39.540Z,0.30
2023-05-16T23:20:46.445Z,0.10
2023-05-16T23:21:53.355Z,0.30
2023-05-16T23:23:00.117Z,0.00
2023-05-16T23:24:07.014Z,0.70
2023-05-16T23:25:13.634Z,0.40
2023-05-16T23:26:20.399Z,0.10
2023-05-16T23:27:27.510Z,0.30
2023-05-16T23:28:34.294Z,0.20
2023-05-16T23:29:41.041Z,0.10
2023-05-16T23:30:48.007Z,0.10
2023-05-16T23:31:54.559Z,0.10
2023-05-16T23:33:01.521Z,0.20
2023-05-16T23:34:08.428Z,0.30
2023-05-16T23:35:15.423Z,0.60
2023-05-16T23:36:22.175Z,0.10
2023-05-16T23:37:29.105Z,0.10
2023-05-16T23:38:35.765Z,0.90
2023-05-16T23:39:42.377Z,0.00
2023-05-16T23:40:49.300Z,0.30
2023-05-16T23:42:01.932Z,0.00
2023-05-16T23:43:08.681Z,0.10
2023-05-16T23:44:15.328Z,0.10
2023-05-16T23:45:22.213Z,0.70
2023-05-16T23:46:29.399Z,0.10
2023-05-16T23:47:36.202Z,0.20
2023-05-16T23:48:44.165Z,0.20
2023-05-16T23:49:51.352Z,0.30
2023-05-16T23:50:59.625Z,0.10
2023-05-16T23:52:08.355Z,0.50
2023-05-16T23:53:16.446Z,0.20
2023-05-16T23:54:23.919Z,0.30
2023-05-16T23:55:31.773Z,0.10
2023-05-16T23:56:39.166Z,0.20
2023-05-16T23:57:46.122Z,0.10
2023-05-16T23:58:54.232Z,0.10
